createdAt,value
2022-12-17T00:01:44.591Z,100046.47
2022-12-17T00:05:06.595Z,100043.00
2022-12-17T00:08:37.529Z,100037.00
2022-12-17T00:12:12.765Z,100052.38
2022-12-17T00:15:48.614Z,100035.97
2022-12-17T00:19:29.780Z,100040.88
2022-12-17T00:23:19.761Z,100035.84
2022-12-17T00:26:44.994Z,100051.09
2022-12-17T00:30:09.820Z,100061.31
2022-12-17T00:33:32.662Z,100070.97
2022-12-17T00:36:54.882Z,100066.66
2022-12-17T00:40:21.018Z,100040.06
2022-12-17T00:43:45.696Z,100014.66
2022-12-17T00:47:08.005Z,100020.34
2022-12-17T00:50:30.702Z,100019.75
2022-12-17T00:53:52.757Z,100035.06
2022-12-17T00:57:14.672Z,100041.84
2022-12-17T01:00:37.907Z,100062.56
2022-12-17T01:04:09.660Z,100072.00
2022-12-17T01:07:31.939Z,100083.63
2022-12-17T01:10:59.565Z,100093.56
2022-12-17T01:14:21.094Z,100102.63
2022-12-17T01:17:48.543Z,100127.81
2022-12-17T01:21:27.524Z,100133.72
2022-12-17T01:24:59.719Z,100114.06
2022-12-17T01:28:22.304Z,100126.50
2022-12-17T01:31:44.830Z,100146.50
2022-12-17T01:35:06.467Z,100142.94
2022-12-17T01:38:37.898Z,100150.41
2022-12-17T01:42:03.413Z,100168.53
2022-12-17T01:45:33.078Z,100154.91
2022-12-17T01:49:14.396Z,100165.34
2022-12-17T01:52:36.095Z,100162.28
2022-12-17T01:56:10.485Z,100158.47
2022-12-17T02:00:10.414Z,100154.34
2022-12-17T02:03:45.245Z,100170.47
2022-12-17T02:07:16.238Z,100169.91
2022-12-17T02:11:02.396Z,100161.38
2022-12-17T02:14:26.283Z,100167.63
2022-12-17T02:18:08.741Z,100167.84
2022-12-17T02:21:31.251Z,100168.78
2022-12-17T02:25:14.549Z,100172.72
2022-12-17T02:28:55.365Z,100169.81
2022-12-17T02:32:27.079Z,100176.44
2022-12-17T02:35:53.706Z,100148.63
2022-12-17T02:39:18.782Z,100155.78
2022-12-17T02:42:46.912Z,100156.84
2022-12-17T02:46:08.842Z,100159.88
2022-12-17T02:49:37.159Z,100176.34
2022-12-17T02:53:13.864Z,100182.03
2022-12-17T02:56:52.080Z,100184.94
2022-12-17T03:00:18.041Z,100181.09
2022-12-17T03:03:40.301Z,100194.34
2022-12-17T03:07:03.462Z,100205.78
2022-12-17T03:10:30.830Z,100213.72
2022-12-17T03:13:52.824Z,100218.25
2022-12-17T03:17:14.812Z,100219.72
2022-12-17T03:20:37.129Z,100219.72
2022-12-17T03:23:59.141Z,100214.63
2022-12-17T03:27:25.268Z,100217.91
2022-12-17T03:30:50.907Z,100212.91
2022-12-17T03:34:12.788Z,100227.88
2022-12-17T03:37:57.020Z,100219.88
2022-12-17T03:41:22.252Z,100217.94
2022-12-17T03:45:03.033Z,100223.72
2022-12-17T03:48:38.599Z,100227.53
2022-12-17T03:52:14.920Z,100209.56
2022-12-17T03:55:53.233Z,100239.59
2022-12-17T03:59:18.962Z,100234.41
2022-12-17T04:02:41.104Z,100242.75
2022-12-17T04:06:03.113Z,100234.50
2022-12-17T04:09:29.287Z,100241.69
2022-12-17T04:12:51.998Z,100232.41
2022-12-17T04:16:14.225Z,100243.06
2022-12-17T04:19:39.181Z,100238.28
2022-12-17T04:23:04.432Z,100225.91
2022-12-17T04:26:28.913Z,100230.19
2022-12-17T04:29:53.859Z,100237.94
2022-12-17T04:33:15.645Z,100245.47
2022-12-17T04:36:40.203Z,100248.47
2022-12-17T04:40:18.482Z,100267.59
2022-12-17T04:43:55.916Z,100277.59
2022-12-17T04:47:21.471Z,100280.13
2022-12-17T04:50:43.363Z,100283.72
2022-12-17T04:54:08.393Z,100282.22
2022-12-17T04:57:30.851Z,100297.16
2022-12-17T05:00:52.373Z,100303.06
2022-12-17T05:04:15.428Z,100311.78
2022-12-17T05:07:37.478Z,100308.84
2022-12-17T05:11:00.149Z,100318.75
2022-12-17T05:14:25.840Z,100320.34
2022-12-17T05:17:51.761Z,100311.16
2022-12-17T05:21:13.487Z,100310.81
2022-12-17T05:24:39.446Z,100327.16
2022-12-17T05:28:01.561Z,100315.22
2022-12-17T05:31:23.541Z,100312.28
2022-12-17T05:34:45.555Z,100328.97
2022-12-17T05:38:11.835Z,100336.00
2022-12-17T05:41:33.706Z,100371.81
2022-12-17T05:44:55.743Z,100367.09
2022-12-17T05:48:17.948Z,100377.91
2022-12-17T05:51:41.881Z,100357.31
2022-12-17T05:55:04.086Z,100363.19
2022-12-17T05:58:29.826Z,100367.63
2022-12-17T06:01:54.832Z,100371.47
2022-12-17T06:05:27.308Z,100396.34
2022-12-17T06:08:52.178Z,100408.16
2022-12-17T06:12:32.659Z,100412.00
2022-12-17T06:16:27.765Z,100405.72
2022-12-17T06:20:02.589Z,100412.91
2022-12-17T06:23:36.015Z,100426.59
2022-12-17T06:27:00.928Z,100441.38
2022-12-17T06:30:24.212Z,100433.84
2022-12-17T06:33:45.575Z,100437.34
2022-12-17T06:37:08.012Z,100433.69
2022-12-17T06:40:32.719Z,100461.22
2022-12-17T06:43:54.930Z,100484.69
2022-12-17T06:47:20.143Z,100474.84
2022-12-17T06:50:49.502Z,100459.75
2022-12-17T06:54:12.090Z,100459.91
2022-12-17T06:57:50.477Z,100483.28
2022-12-17T07:01:18.944Z,100484.75
2022-12-17T07:04:51.916Z,100506.44
2022-12-17T07:08:19.306Z,100507.41
2022-12-17T07:11:41.508Z,100521.22
2022-12-17T07:15:07.578Z,100520.16
2022-12-17T07:18:34.186Z,100530.09
2022-12-17T07:21:56.697Z,100527.97
2022-12-17T07:25:22.017Z,100524.09
2022-12-17T07:28:44.608Z,100531.25
2022-12-17T07:32:11.144Z,100550.25
2022-12-17T07:35:33.158Z,100551.09
2022-12-17T07:38:55.072Z,100549.28
2022-12-17T07:42:29.375Z,100547.50
2022-12-17T07:45:54.529Z,100564.19
2022-12-17T07:49:25.356Z,100569.00
2022-12-17T07:52:59.101Z,100584.28
2022-12-17T07:56:26.597Z,100571.94
2022-12-17T07:59:48.724Z,100578.78
2022-12-17T08:03:33.462Z,100579.50
2022-12-17T08:07:14.288Z,100583.94
2022-12-17T08:10:40.479Z,100583.25
2022-12-17T08:14:02.641Z,100576.06
2022-12-17T08:17:24.697Z,100598.28
2022-12-17T08:20:46.583Z,100614.88
2022-12-17T08:24:12.286Z,100605.38
2022-12-17T08:27:48.005Z,100614.75
2022-12-17T08:31:10.306Z,100620.06
2022-12-17T08:34:32.830Z,100627.38
2022-12-17T08:37:57.336Z,100638.78
2022-12-17T08:41:19.826Z,100652.16
2022-12-17T08:44:41.468Z,100642.31
2022-12-17T08:48:04.389Z,100659.16
2022-12-17T08:51:43.975Z,100654.94
2022-12-17T08:55:18.187Z,100666.06
2022-12-17T08:58:59.315Z,100654.25
2022-12-17T09:02:27.434Z,100670.56
2022-12-17T09:05:49.512Z,100658.97
2022-12-17T09:09:11.501Z,100666.81
2022-12-17T09:12:32.828Z,100660.34
2022-12-17T09:15:54.883Z,100665.25
2022-12-17T09:19:18.578Z,100669.66
2022-12-17T09:22:40.787Z,100675.75
2022-12-17T09:26:03.136Z,100674.69
2022-12-17T09:29:31.427Z,100672.09
2022-12-17T09:32:56.389Z,100702.53
2022-12-17T09:36:29.129Z,100688.81
2022-12-17T09:39:56.882Z,100684.44
2022-12-17T09:43:52.068Z,100694.00
2022-12-17T09:47:32.215Z,100689.00
2022-12-17T09:50:53.782Z,100704.25
2022-12-17T09:54:42.335Z,100696.47
2022-12-17T09:58:09.434Z,100704.59
2022-12-17T10:01:41.504Z,100706.16
2022-12-17T10:05:15.816Z,100704.16
2022-12-17T10:08:52.237Z,100715.56
2022-12-17T10:12:16.649Z,100721.78
2022-12-17T10:15:58.140Z,100726.63
2022-12-17T10:19:58.021Z,100728.16
2022-12-17T10:23:20.195Z,100745.84
2022-12-17T10:26:49.060Z,100733.53
2022-12-17T10:30:14.214Z,100728.69
2022-12-17T10:33:56.167Z,100739.25
2022-12-17T10:37:43.767Z,100750.47
2022-12-17T10:41:19.105Z,100766.97
2022-12-17T10:45:02.912Z,100780.53
2022-12-17T10:48:59.061Z,100798.97
2022-12-17T10:52:48.421Z,100814.41
2022-12-17T10:56:15.171Z,100822.38
2022-12-17T10:59:57.407Z,100817.50
2022-12-17T11:03:18.515Z,100817.50
2022-12-17T11:06:55.836Z,100830.41
2022-12-17T11:10:21.490Z,100840.75
2022-12-17T11:14:03.547Z,100855.44
2022-12-17T11:17:32.312Z,100855.22
2022-12-17T11:21:16.767Z,100863.81
2022-12-17T11:24:46.671Z,100862.63
2022-12-17T11:28:17.760Z,100867.53
2022-12-17T11:32:04.337Z,100863.78
2022-12-17T11:35:39.301Z,100875.28
2022-12-17T11:39:14.759Z,100875.22
2022-12-17T11:42:58.838Z,100889.16
2022-12-17T11:46:43.428Z,100911.34
2022-12-17T11:50:20.981Z,100876.84
2022-12-17T11:53:54.687Z,100892.59
2022-12-17T11:57:39.248Z,100891.69
2022-12-17T12:01:25.497Z,100895.91
2022-12-17T12:05:31.695Z,100908.78
2022-12-17T12:09:11.113Z,100927.50
2022-12-17T12:12:48.590Z,100927.06
2022-12-17T12:16:31.749Z,100919.88
2022-12-17T12:20:27.434Z,100936.59
2022-12-17T12:24:32.093Z,100917.22
2022-12-17T12:28:08.574Z,100927.94
2022-12-17T12:32:08.659Z,100938.56
2022-12-17T12:35:37.869Z,100951.19
2022-12-17T12:39:03.931Z,100932.66
2022-12-17T12:42:44.127Z,100931.69
2022-12-17T12:46:28.237Z,100937.16
2022-12-17T12:49:54.333Z,100947.78
2022-12-17T12:53:18.508Z,100954.09
2022-12-17T12:56:52.847Z,100969.38
2022-12-17T13:00:28.583Z,100972.50
2022-12-17T13:04:08.087Z,100965.50
2022-12-17T13:07:29.024Z,100977.59
2022-12-17T13:10:36.544Z,100988.94
2022-12-17T13:13:58.791Z,100979.56
2022-12-17T13:17:04.500Z,100984.56
2022-12-17T13:20:30.651Z,100980.59
2022-12-17T13:23:50.529Z,100999.19
2022-12-17T13:26:57.644Z,101014.50
2022-12-17T13:30:23.048Z,101024.00
2022-12-17T13:33:44.164Z,101017.00
2022-12-17T13:36:53.696Z,101014.44
2022-12-17T13:40:21.453Z,101024.25
2022-12-17T13:43:33.237Z,101033.44
2022-12-17T13:46:53.161Z,101043.19
2022-12-17T13:50:38.596Z,101061.34
2022-12-17T13:53:52.984Z,101051.03
2022-12-17T13:57:16.667Z,101049.44
2022-12-17T14:00:26.802Z,101061.41
2022-12-17T14:04:04.719Z,101071.41
2022-12-17T14:07:10.511Z,101076.03
2022-12-17T14:10:31.176Z,101071.63
2022-12-17T14:13:49.385Z,101103.97
2022-12-17T14:16:53.033Z,101079.59
2022-12-17T14:20:21.391Z,101094.97
2022-12-17T14:23:59.320Z,101113.84
2022-12-17T14:27:30.444Z,101112.19
2022-12-17T14:31:17.737Z,101123.44
2022-12-17T14:34:12.580Z,101125.94
2022-12-17T14:37:28.258Z,101119.38
2022-12-17T14:40:51.328Z,101145.00
2022-12-17T14:44:18.564Z,101149.31
2022-12-17T14:47:39.340Z,101160.41
2022-12-17T14:50:59.303Z,101178.06
2022-12-17T14:54:33.348Z,101185.41
2022-12-17T14:57:39.570Z,101176.41
2022-12-17T15:01:13.588Z,101187.91
2022-12-17T15:04:27.542Z,101197.09
2022-12-17T15:07:47.288Z,101190.75
2022-12-17T15:11:10.276Z,101212.69
2022-12-17T15:14:27.478Z,101221.72
2022-12-17T15:17:30.495Z,101221.72
2022-12-17T15:20:34.213Z,101231.78
2022-12-17T15:23:53.789Z,101236.69
2022-12-17T15:27:03.738Z,101249.41
2022-12-17T15:30:17.602Z,101257.63
2022-12-17T15:33:26.592Z,101270.13
2022-12-17T15:36:32.677Z,101262.34
2022-12-17T15:39:38.599Z,101269.31
2022-12-17T15:43:06.145Z,101259.00
2022-12-17T15:46:19.299Z,101269.69
2022-12-17T15:49:26.183Z,101260.66
2022-12-17T15:52:33.359Z,101271.94
2022-12-17T15:55:42.843Z,101276.84
2022-12-17T15:58:52.748Z,101287.28
2022-12-17T16:02:03.618Z,101292.63
2022-12-17T16:05:07.335Z,101287.91
2022-12-17T16:08:10.528Z,101294.47
2022-12-17T16:11:15.497Z,101296.28
2022-12-17T16:14:28.969Z,101305.13
2022-12-17T16:17:32.055Z,101304.09
2022-12-17T16:20:36.605Z,101307.38
2022-12-17T16:23:53.124Z,101299.75
2022-12-17T16:27:09.962Z,101303.03
2022-12-17T16:30:27.206Z,101309.56
2022-12-17T16:33:39.410Z,101324.81
2022-12-17T16:36:45.661Z,101325.78
2022-12-17T16:39:52.901Z,101335.00
2022-12-17T16:43:10.543Z,101343.78
2022-12-17T16:47:06.257Z,101352.22
2022-12-17T16:50:41.839Z,101350.97
2022-12-17T16:54:15.599Z,101373.09
2022-12-17T16:57:28.459Z,101378.00
2022-12-17T17:00:50.852Z,101380.88
2022-12-17T17:04:13.370Z,101373.91
2022-12-17T17:07:30.128Z,101382.34
2022-12-17T17:10:57.879Z,101392.97
2022-12-17T17:14:22.614Z,101390.06
2022-12-17T17:17:55.661Z,101396.22
2022-12-17T17:21:01.835Z,101390.28
2022-12-17T17:24:30.502Z,101400.97
2022-12-17T17:27:52.431Z,101406.88
2022-12-17T17:31:15.441Z,101403.34
2022-12-17T17:34:37.404Z,101405.56
2022-12-17T17:37:55.506Z,101414.56
2022-12-17T17:41:15.757Z,101419.50
2022-12-17T17:44:35.832Z,101430.59
2022-12-17T17:47:58.802Z,101420.97
2022-12-17T17:51:38.960Z,101432.41
2022-12-17T17:54:54.321Z,101432.81
2022-12-17T17:58:14.612Z,101437.50
2022-12-17T18:01:34.666Z,101449.69
2022-12-17T18:04:57.663Z,101445.31
2022-12-17T18:08:20.664Z,101441.44
2022-12-17T18:11:43.587Z,101446.16
2022-12-17T18:15:14.170Z,101447.16
2022-12-17T18:18:29.698Z,101450.84
2022-12-17T18:21:50.462Z,101472.78
2022-12-17T18:25:13.670Z,101481.94
2022-12-17T18:28:34.942Z,101493.25
2022-12-17T18:31:55.498Z,101494.66
2022-12-17T18:35:18.672Z,101492.41
2022-12-17T18:38:41.485Z,101500.16
2022-12-17T18:42:20.679Z,101509.41
2022-12-17T18:45:30.793Z,101514.69
2022-12-17T18:48:49.624Z,101512.22
2022-12-17T18:52:16.777Z,101536.66
2022-12-17T18:55:35.608Z,101530.97
2022-12-17T18:58:58.552Z,101537.56
2022-12-17T19:02:18.979Z,101552.63
2022-12-17T19:05:45.813Z,101552.53
2022-12-17T19:09:00.460Z,101570.41
2022-12-17T19:12:20.458Z,101579.50
2022-12-17T19:15:43.511Z,101580.72
2022-12-17T19:19:05.766Z,101582.38
2022-12-17T19:22:26.438Z,101588.72
2022-12-17T19:25:46.824Z,101600.56
2022-12-17T19:29:09.475Z,101592.56
2022-12-17T19:32:29.588Z,101595.03
2022-12-17T19:35:52.515Z,101607.53
2022-12-17T19:39:14.754Z,101612.41
2022-12-17T19:42:30.664Z,101620.59
2022-12-17T19:46:02.597Z,101628.97
2022-12-17T19:49:20.749Z,101643.47
2022-12-17T19:52:33.601Z,101639.59
2022-12-17T19:55:40.666Z,101643.84
2022-12-17T19:58:56.324Z,101642.94
2022-12-17T20:02:12.455Z,101651.66
2022-12-17T20:05:22.116Z,101655.69
2022-12-17T20:08:40.638Z,101663.22
2022-12-17T20:12:16.301Z,101675.06
2022-12-17T20:15:42.134Z,101667.44
2022-12-17T20:18:52.149Z,101678.09
2022-12-17T20:22:17.255Z,101674.41
2022-12-17T20:25:33.269Z,101680.22
2022-12-17T20:28:56.474Z,101690.38
2022-12-17T20:32:25.415Z,101699.31
2022-12-17T20:35:46.237Z,101712.41
2022-12-17T20:39:20.685Z,101716.81
2022-12-17T20:42:41.301Z,101729.69
2022-12-17T20:45:58.354Z,101724.91
2022-12-17T20:49:17.058Z,101735.19
2022-12-17T20:52:40.221Z,101730.78
2022-12-17T20:56:13.169Z,101744.09
2022-12-17T20:59:29.315Z,101753.25
2022-12-17T21:02:50.412Z,101753.63
2022-12-17T21:06:19.133Z,101764.34
2022-12-17T21:09:39.124Z,101768.78
2022-12-17T21:13:10.107Z,101776.06
2022-12-17T21:16:26.392Z,101796.53
2022-12-17T21:19:39.315Z,101803.00
2022-12-17T21:23:02.075Z,101808.00
2022-12-17T21:26:27.302Z,101812.81
2022-12-17T21:29:47.146Z,101821.16
2022-12-17T21:33:07.143Z,101820.97
2022-12-17T21:36:19.258Z,101836.63
2022-12-17T21:39:26.299Z,101826.16
2022-12-17T21:42:47.677Z,101837.13
2022-12-17T21:45:57.837Z,101833.31
2022-12-17T21:49:07.516Z,101839.47
2022-12-17T21:52:31.029Z,101844.31
2022-12-17T21:56:05.969Z,101849.56
2022-12-17T21:59:27.881Z,101854.69
2022-12-17T22:02:48.935Z,101857.72
2022-12-17T22:06:10.970Z,101864.59
2022-12-17T22:09:26.328Z,101867.63
2022-12-17T22:13:04.956Z,101868.06
2022-12-17T22:16:18.981Z,101874.31
2022-12-17T22:19:35.050Z,101884.41
2022-12-17T22:22:49.605Z,101895.97
2022-12-17T22:26:06.033Z,101897.69
2022-12-17T22:29:51.772Z,101894.00
2022-12-17T22:33:18.109Z,101897.25
2022-12-17T22:38:11.795Z,101906.88
2022-12-17T22:44:29.144Z,101908.47
2022-12-17T22:44:36.108Z,101900.63
2022-12-17T22:46:58.230Z,101917.59
2022-12-17T22:50:05.943Z,101919.50
2022-12-17T22:53:22.105Z,101928.78
2022-12-17T22:57:18.057Z,101930.41
2022-12-17T23:00:24.054Z,101930.03
2022-12-17T23:03:34.021Z,101933.91
2022-12-17T23:06:54.749Z,101941.22
2022-12-17T23:10:15.831Z,101945.53
2022-12-17T23:13:31.982Z,101956.63
2022-12-17T23:16:54.879Z,101966.81
2022-12-17T23:20:18.768Z,101968.44
2022-12-17T23:23:42.186Z,101967.03
2022-12-17T23:27:01.709Z,101970.78
2022-12-17T23:30:25.762Z,101981.94
2022-12-17T23:33:43.993Z,101983.09
2022-12-17T23:36:46.829Z,101986.41
2022-12-17T23:39:53.739Z,101991.19
2022-12-17T23:42:57.542Z,101997.88
2022-12-17T23:46:22.765Z,101989.47
2022-12-17T23:49:33.189Z,102005.50
2022-12-17T23:52:37.656Z,101996.09
2022-12-17T23:55:44.108Z,102009.53
2022-12-17T23:58:56.791Z,102015.84
